createdAt,value
2023-12-27T00:01:16.832Z,90289.91
2023-12-27T00:03:43.203Z,90293.91
2023-12-27T00:06:09.653Z,90288.53
2023-12-27T00:08:35.980Z,90286.97
2023-12-27T00:11:02.269Z,90290.63
2023-12-27T00:13:28.541Z,90285.13
2023-12-27T00:15:54.832Z,90293.03
2023-12-27T00:18:21.212Z,90295.75
2023-12-27T00:20:47.555Z,90297.78
2023-12-27T00:23:13.854Z,90304.75
2023-12-27T00:25:40.129Z,90303.75
2023-12-27T00:28:06.418Z,90305.53
2023-12-27T00:30:32.821Z,90294.69
2023-12-27T00:32:59.352Z,90298.94
2023-12-27T00:35:25.687Z,90294.56
2023-12-27T00:37:51.972Z,90292.84
2023-12-27T00:40:18.261Z,90303.59
2023-12-27T00:42:44.575Z,90300.56
2023-12-27T00:45:10.924Z,90300.88
2023-12-27T00:47:37.238Z,90302.66
2023-12-27T00:50:03.587Z,90295.53
2023-12-27T00:52:29.891Z,90297.94
2023-12-27T00:54:56.185Z,90300.31
2023-12-27T00:57:22.521Z,90300.09
2023-12-27T00:59:48.859Z,90304.63
2023-12-27T01:02:15.126Z,90298.78
2023-12-27T01:04:41.498Z,90295.63
2023-12-27T01:07:07.835Z,90290.44
2023-12-27T01:09:34.214Z,90288.59
2023-12-27T01:12:00.616Z,90291.94
2023-12-27T01:14:26.897Z,90290.44
2023-12-27T01:16:53.172Z,90299.56
2023-12-27T01:19:19.615Z,90286.97
2023-12-27T01:21:45.932Z,90302.97
2023-12-27T01:24:12.281Z,90300.97
2023-12-27T01:26:38.575Z,90310.28
2023-12-27T01:29:04.886Z,90313.41
2023-12-27T01:31:31.187Z,90312.91
2023-12-27T01:34:04.784Z,90314.00
2023-12-27T01:36:38.547Z,90315.00
2023-12-27T01:39:04.921Z,90309.25
2023-12-27T01:41:31.236Z,90306.75
2023-12-27T01:43:57.518Z,90308.59
2023-12-27T01:46:23.804Z,90306.97
2023-12-27T01:48:50.290Z,90303.16
2023-12-27T01:51:16.622Z,90304.00
2023-12-27T01:53:42.939Z,90297.63
2023-12-27T01:56:09.220Z,90303.66
2023-12-27T01:58:35.525Z,90298.50
2023-12-27T02:01:01.944Z,90305.72
2023-12-27T02:03:28.350Z,90309.19
2023-12-27T02:05:54.728Z,90314.94
2023-12-27T02:08:21.073Z,90314.09
2023-12-27T02:10:47.385Z,90312.16
2023-12-27T02:13:13.685Z,90316.59
2023-12-27T02:15:40.165Z,90307.69
2023-12-27T02:18:06.818Z,90299.16
2023-12-27T02:20:33.342Z,90298.06
2023-12-27T02:22:59.641Z,90292.56
2023-12-27T02:25:25.972Z,90286.69
2023-12-27T02:27:52.293Z,90279.50
2023-12-27T02:30:18.745Z,90284.13
2023-12-27T02:32:45.304Z,90279.38
2023-12-27T02:35:11.746Z,90275.03
2023-12-27T02:40:26.827Z,90273.25
2023-12-27T02:42:53.142Z,90262.03
2023-12-27T02:45:19.518Z,90262.31
2023-12-27T02:47:45.859Z,90264.91
2023-12-27T02:50:12.154Z,90273.81
2023-12-27T02:52:38.453Z,90263.56
2023-12-27T02:55:04.755Z,90257.91
2023-12-27T02:57:31.053Z,90265.28
2023-12-27T02:59:57.447Z,90261.59
2023-12-27T03:02:23.816Z,90262.06
2023-12-27T03:04:50.254Z,90255.72
2023-12-27T03:07:16.622Z,90252.69
2023-12-27T03:09:42.915Z,90246.78
2023-12-27T03:12:09.216Z,90252.75
2023-12-27T03:14:35.516Z,90247.00
2023-12-27T03:17:01.817Z,90249.34
2023-12-27T03:19:28.217Z,90250.50
2023-12-27T03:21:54.521Z,90246.28
2023-12-27T03:24:20.861Z,90245.69
2023-12-27T03:26:47.196Z,90249.69
2023-12-27T03:29:13.513Z,90257.19
2023-12-27T03:31:39.879Z,90251.97
2023-12-27T03:34:06.256Z,90243.94
2023-12-27T03:36:32.632Z,90241.63
2023-12-27T03:38:59.018Z,90248.19
2023-12-27T03:41:25.310Z,90247.75
2023-12-27T03:43:51.603Z,90254.28
2023-12-27T03:46:17.892Z,90249.44
2023-12-27T03:48:44.247Z,90249.66
2023-12-27T03:51:10.652Z,90252.94
2023-12-27T03:53:36.961Z,90248.59
2023-12-27T03:56:03.254Z,90253.81
2023-12-27T03:58:29.558Z,90248.81
2023-12-27T04:00:55.867Z,90249.34
2023-12-27T04:03:22.177Z,90247.75
2023-12-27T04:05:48.593Z,90249.78
2023-12-27T04:08:14.935Z,90246.16
2023-12-27T04:10:41.233Z,90246.34
2023-12-27T04:13:27.496Z,90248.53
2023-12-27T04:16:03.917Z,90250.13
2023-12-27T04:18:30.313Z,90246.19
2023-12-27T04:20:56.705Z,90242.69
2023-12-27T04:23:23.073Z,90247.94
2023-12-27T04:25:49.357Z,90238.72
2023-12-27T04:28:15.657Z,90240.41
2023-12-27T04:30:42.011Z,90245.88
2023-12-27T04:33:08.475Z,90234.69
2023-12-27T04:35:34.842Z,90242.53
2023-12-27T04:38:01.121Z,90243.22
2023-12-27T04:40:27.406Z,90242.09
2023-12-27T04:42:53.697Z,90247.19
2023-12-27T04:45:20.045Z,90240.47
2023-12-27T04:47:46.403Z,90250.44
2023-12-27T04:50:12.906Z,90250.06
2023-12-27T04:52:39.253Z,90250.66
2023-12-27T04:55:05.542Z,90251.22
2023-12-27T04:57:31.860Z,90245.84
2023-12-27T04:59:58.184Z,90250.25
2023-12-27T05:02:24.492Z,90247.88
2023-12-27T05:04:50.783Z,90256.97
2023-12-27T05:07:17.068Z,90256.38
2023-12-27T05:09:43.353Z,90250.88
2023-12-27T05:12:09.647Z,90255.88
2023-12-27T05:14:35.938Z,90255.44
2023-12-27T05:17:02.213Z,90252.47
2023-12-27T05:19:28.628Z,90250.81
2023-12-27T05:21:54.982Z,90251.84
2023-12-27T05:24:21.360Z,90263.31
2023-12-27T05:26:47.689Z,90268.38
2023-12-27T05:29:14.070Z,90260.81
2023-12-27T05:31:40.429Z,90263.00
2023-12-27T05:34:06.881Z,90273.69
2023-12-27T05:36:33.316Z,90270.19
2023-12-27T05:38:59.653Z,90262.34
2023-12-27T05:41:25.958Z,90278.50
2023-12-27T05:43:52.255Z,90264.75
2023-12-27T05:46:18.560Z,90269.88
2023-12-27T05:48:44.912Z,90272.66
2023-12-27T05:51:11.278Z,90273.53
2023-12-27T05:53:37.586Z,90276.75
2023-12-27T05:56:03.882Z,90278.19
2023-12-27T05:58:31.160Z,90274.75
2023-12-27T06:00:58.295Z,90280.13
2023-12-27T06:03:24.982Z,90280.69
2023-12-27T06:05:51.363Z,90284.50
2023-12-27T06:08:17.649Z,90285.22
2023-12-27T06:10:43.928Z,90286.16
2023-12-27T06:13:10.221Z,90290.25
2023-12-27T06:15:36.512Z,90290.44
2023-12-27T06:18:03.086Z,90292.50
2023-12-27T06:20:29.721Z,90286.97
2023-12-27T06:22:56.003Z,90286.91
2023-12-27T06:25:22.277Z,90291.75
2023-12-27T06:27:48.652Z,90289.88
2023-12-27T06:30:14.984Z,90291.63
2023-12-27T06:32:41.376Z,90288.91
2023-12-27T06:35:07.758Z,90284.34
2023-12-27T06:37:34.579Z,90290.50
2023-12-27T06:40:01.462Z,90293.78
2023-12-27T06:42:27.806Z,90292.00
2023-12-27T06:44:54.114Z,90275.03
2023-12-27T06:47:20.419Z,90294.19
2023-12-27T06:49:46.845Z,90298.63
2023-12-27T06:52:13.275Z,90293.09
2023-12-27T06:54:39.651Z,90298.69
2023-12-27T06:57:05.974Z,90303.22
2023-12-27T06:59:32.275Z,90290.81
2023-12-27T07:01:58.567Z,90294.50
2023-12-27T07:04:24.849Z,90298.97
2023-12-27T07:06:51.139Z,90301.81
2023-12-27T07:09:17.524Z,90301.34
2023-12-27T07:11:43.869Z,90296.72
2023-12-27T07:14:10.133Z,90299.81
2023-12-27T07:16:36.422Z,90302.53
2023-12-27T07:19:02.843Z,90304.28
2023-12-27T07:21:29.251Z,90307.00
2023-12-27T07:23:55.568Z,90309.53
2023-12-27T07:26:21.836Z,90316.25
2023-12-27T07:28:48.131Z,90307.63
2023-12-27T07:31:14.631Z,90316.16
2023-12-27T07:33:41.143Z,90315.72
2023-12-27T07:36:07.510Z,90320.31
2023-12-27T07:38:33.823Z,90327.06
2023-12-27T07:41:00.106Z,90334.34
2023-12-27T07:43:26.405Z,90331.19
2023-12-27T07:45:52.708Z,90334.38
2023-12-27T07:48:19.064Z,90334.41
2023-12-27T07:50:45.410Z,90335.50
2023-12-27T07:53:11.712Z,90347.47
2023-12-27T07:55:38.023Z,90340.63
2023-12-27T07:58:04.303Z,90350.41
2023-12-27T08:00:30.742Z,90340.84
2023-12-27T08:02:57.071Z,90341.69
2023-12-27T08:05:23.392Z,90346.31
2023-12-27T08:07:49.730Z,90345.34
2023-12-27T08:10:16.017Z,90342.31
2023-12-27T08:12:44.453Z,90352.94
2023-12-27T08:15:11.141Z,90359.03
2023-12-27T08:17:37.457Z,90355.22
2023-12-27T08:20:03.783Z,90357.22
2023-12-27T08:22:30.060Z,90358.94
2023-12-27T08:24:56.400Z,90352.81
2023-12-27T08:27:22.687Z,90345.41
2023-12-27T08:29:49.009Z,90353.56
2023-12-27T08:32:15.295Z,90352.88
2023-12-27T08:34:41.678Z,90353.66
2023-12-27T08:37:07.983Z,90360.00
2023-12-27T08:39:34.299Z,90355.59
2023-12-27T08:42:00.683Z,90353.72
2023-12-27T08:44:26.971Z,90361.94
2023-12-27T08:46:53.271Z,90356.72
2023-12-27T08:49:19.664Z,90355.59
2023-12-27T08:51:46.060Z,90356.75
2023-12-27T08:54:12.428Z,90348.53
2023-12-27T08:56:38.785Z,90360.09
2023-12-27T08:59:05.090Z,90347.78
2023-12-27T09:01:31.395Z,90354.88
2023-12-27T09:03:57.764Z,90356.03
2023-12-27T09:06:24.208Z,90349.28
2023-12-27T09:08:50.617Z,90351.16
2023-12-27T09:11:16.970Z,90349.28
2023-12-27T09:14:03.196Z,90353.03
2023-12-27T09:16:29.478Z,90353.75
2023-12-27T09:18:55.896Z,90355.25
2023-12-27T09:21:22.273Z,90356.00
2023-12-27T09:23:48.588Z,90349.28
2023-12-27T09:26:14.872Z,90348.50
2023-12-27T09:28:41.170Z,90349.25
2023-12-27T09:31:07.592Z,90341.00
2023-12-27T09:33:34.090Z,90337.25
2023-12-27T09:36:00.535Z,90348.50
2023-12-27T09:38:26.887Z,90339.56
2023-12-27T09:40:53.174Z,90336.19
2023-12-27T09:43:19.454Z,90335.06
2023-12-27T09:45:45.767Z,90340.66
2023-12-27T09:48:12.211Z,90335.00
2023-12-27T09:50:38.710Z,90329.03
2023-12-27T09:53:05.049Z,90334.56
2023-12-27T09:55:31.345Z,90326.81
2023-12-27T09:57:57.925Z,90335.41
2023-12-27T10:00:24.437Z,90329.47
2023-12-27T10:02:50.862Z,90331.31
2023-12-27T10:05:17.351Z,90337.94
2023-12-27T10:07:43.716Z,90336.44
2023-12-27T10:10:20.312Z,90331.28
2023-12-27T10:12:51.153Z,90336.44
2023-12-27T10:15:17.456Z,90330.44
2023-12-27T10:17:43.823Z,90328.16
2023-12-27T10:20:10.113Z,90319.97
2023-12-27T10:22:36.416Z,90319.28
2023-12-27T10:25:02.697Z,90309.88
2023-12-27T10:27:29.039Z,90307.19
2023-12-27T10:29:55.326Z,90304.59
2023-12-27T10:32:21.627Z,90300.41
2023-12-27T10:34:48.288Z,90293.66
2023-12-27T10:37:14.769Z,90301.06
2023-12-27T10:39:41.088Z,90295.94
2023-12-27T10:42:07.426Z,90300.34
2023-12-27T10:44:33.700Z,90298.38
2023-12-27T10:46:59.969Z,90301.06
2023-12-27T10:49:26.411Z,90294.22
2023-12-27T10:51:52.744Z,90289.72
2023-12-27T10:54:19.080Z,90286.84
2023-12-27T10:56:45.451Z,90278.59
2023-12-27T10:59:11.855Z,90275.44
2023-12-27T11:01:38.208Z,90271.69
2023-12-27T11:04:04.656Z,90266.81
2023-12-27T11:06:31.065Z,90262.66
2023-12-27T11:08:57.395Z,90264.91
2023-12-27T11:11:23.680Z,90272.03
2023-12-27T11:13:50.021Z,90260.34
2023-12-27T11:16:16.364Z,90255.91
2023-12-27T11:18:42.807Z,90253.53
2023-12-27T11:21:09.152Z,90247.91
2023-12-27T11:23:35.447Z,90244.34
2023-12-27T11:26:01.835Z,90246.16
2023-12-27T11:28:28.180Z,90235.81
2023-12-27T11:30:54.529Z,90239.69
2023-12-27T11:33:20.986Z,90235.84
2023-12-27T11:35:47.414Z,90220.00
2023-12-27T11:38:13.710Z,90223.25
2023-12-27T11:40:40.070Z,90223.84
2023-12-27T11:43:06.416Z,90225.69
2023-12-27T11:45:32.753Z,90221.13
2023-12-27T11:47:59.297Z,90212.19
2023-12-27T11:50:25.715Z,90205.09
2023-12-27T11:52:59.364Z,90211.19
2023-12-27T11:55:30.131Z,90203.94
2023-12-27T11:57:56.660Z,90199.13
2023-12-27T12:00:23.197Z,90187.72
2023-12-27T12:02:50.121Z,90198.28
2023-12-27T12:05:17.105Z,90189.13
2023-12-27T12:07:43.421Z,90185.22
2023-12-27T12:10:09.713Z,90176.19
2023-12-27T12:12:36.031Z,90166.81
2023-12-27T12:15:02.350Z,90167.41
2023-12-27T12:17:28.968Z,90155.63
2023-12-27T12:19:55.443Z,90157.78
2023-12-27T12:22:21.815Z,90155.41
2023-12-27T12:24:48.315Z,90153.19
2023-12-27T12:27:14.776Z,90148.63
2023-12-27T12:29:41.159Z,90144.16
2023-12-27T12:32:07.509Z,90135.22
2023-12-27T12:34:33.892Z,90132.94
2023-12-27T12:37:00.275Z,90133.09
2023-12-27T12:39:26.592Z,90133.78
2023-12-27T12:41:52.883Z,90127.09
2023-12-27T12:44:19.176Z,90129.28
2023-12-27T12:46:45.463Z,90128.00
2023-12-27T12:49:11.890Z,90121.16
2023-12-27T12:51:38.362Z,90124.03
2023-12-27T12:54:04.723Z,90118.44
2023-12-27T12:56:31.074Z,90114.38
2023-12-27T12:58:57.347Z,90116.94
2023-12-27T13:01:23.708Z,90115.72
2023-12-27T13:03:50.230Z,90108.94
2023-12-27T13:06:16.624Z,90107.69
2023-12-27T13:08:42.943Z,90108.25
2023-12-27T13:11:09.571Z,90106.13
2023-12-27T13:13:35.897Z,90099.81
2023-12-27T13:16:02.183Z,90096.53
2023-12-27T13:18:28.656Z,90088.66
2023-12-27T13:20:55.011Z,90095.00
2023-12-27T13:23:21.299Z,90081.44
2023-12-27T13:25:47.609Z,90077.06
2023-12-27T13:28:14.264Z,90079.22
2023-12-27T13:30:40.964Z,90080.19
2023-12-27T13:33:07.711Z,90074.28
2023-12-27T13:35:34.173Z,90070.81
2023-12-27T13:38:00.619Z,90074.78
2023-12-27T13:40:27.108Z,90070.78
2023-12-27T13:42:56.952Z,90068.72
2023-12-27T13:45:23.784Z,90059.69
2023-12-27T13:47:50.170Z,90057.78
2023-12-27T13:50:16.583Z,90054.91
2023-12-27T13:52:42.851Z,90047.63
2023-12-27T13:55:09.164Z,90042.59
2023-12-27T13:57:35.639Z,90041.09
2023-12-27T14:00:02.079Z,90038.13
2023-12-27T14:02:28.437Z,90034.38
2023-12-27T14:04:54.769Z,90032.19
2023-12-27T14:07:21.064Z,90034.78
2023-12-27T14:09:47.570Z,90031.22
2023-12-27T14:12:14.112Z,90022.50
2023-12-27T14:14:40.408Z,90021.81
2023-12-27T14:17:06.751Z,90028.09
2023-12-27T14:19:33.163Z,90024.81
2023-12-27T14:21:59.516Z,90029.09
2023-12-27T14:24:25.840Z,90025.75
2023-12-27T14:26:52.135Z,90034.31
2023-12-27T14:29:18.427Z,90029.28
2023-12-27T14:31:44.801Z,90028.31
2023-12-27T14:34:11.265Z,90022.59
2023-12-27T14:36:37.637Z,90026.19
2023-12-27T14:39:03.963Z,90025.34
2023-12-27T14:41:30.259Z,90020.91
2023-12-27T14:43:56.543Z,90019.72
2023-12-27T14:46:22.826Z,90018.78
2023-12-27T14:48:49.181Z,90016.97
2023-12-27T14:51:16.879Z,90022.09
2023-12-27T14:53:43.371Z,90019.16
2023-12-27T14:56:09.647Z,90011.53
2023-12-27T14:58:35.920Z,90016.00
2023-12-27T15:01:02.357Z,90019.19
2023-12-27T15:03:28.741Z,90017.81
2023-12-27T15:05:55.177Z,90023.00
2023-12-27T15:08:21.497Z,90023.13
2023-12-27T15:10:47.810Z,90015.78
2023-12-27T15:13:14.099Z,90012.88
2023-12-27T15:15:40.418Z,90012.69
2023-12-27T15:18:06.913Z,90011.31
2023-12-27T15:20:33.276Z,90014.25
2023-12-27T15:22:59.575Z,90010.97
2023-12-27T15:25:25.871Z,90011.97
2023-12-27T15:27:52.261Z,90013.78
2023-12-27T15:30:18.664Z,90014.88
2023-12-27T15:32:45.156Z,90017.06
2023-12-27T15:35:11.527Z,90009.25
2023-12-27T15:37:37.824Z,90015.03
2023-12-27T15:40:04.126Z,90021.25
2023-12-27T15:42:30.437Z,90020.50
2023-12-27T15:44:57.078Z,90019.06
2023-12-27T15:47:23.400Z,90026.56
2023-12-27T15:49:49.837Z,90023.53
2023-12-27T15:52:16.178Z,90025.53
2023-12-27T15:54:42.534Z,90026.09
2023-12-27T15:57:08.903Z,90023.25
2023-12-27T15:59:35.187Z,90021.44
2023-12-27T16:02:01.474Z,90034.03
2023-12-27T16:04:27.913Z,90038.25
2023-12-27T16:06:54.330Z,90033.31
2023-12-27T16:09:20.666Z,90022.03
2023-12-27T16:11:53.006Z,90025.81
2023-12-27T16:14:19.305Z,90028.69
2023-12-27T16:16:45.603Z,90030.06
2023-12-27T16:19:12.111Z,90027.75
2023-12-27T16:21:38.920Z,90031.66
2023-12-27T16:24:05.449Z,90025.44
2023-12-27T16:26:31.829Z,90035.53
2023-12-27T16:28:58.189Z,90036.66
2023-12-27T16:31:24.599Z,90037.97
2023-12-27T16:33:50.992Z,90038.22
2023-12-27T16:36:17.368Z,90039.78
2023-12-27T16:38:43.686Z,90039.69
2023-12-27T16:41:09.975Z,90044.06
2023-12-27T16:43:36.817Z,90053.50
2023-12-27T16:46:03.705Z,90049.13
2023-12-27T16:48:30.143Z,90052.94
2023-12-27T16:50:56.453Z,90048.84
2023-12-27T16:53:22.747Z,90056.66
2023-12-27T16:55:49.092Z,90058.13
2023-12-27T16:58:15.418Z,90066.66
2023-12-27T17:00:41.986Z,90068.94
2023-12-27T17:03:08.481Z,90062.72
2023-12-27T17:05:34.845Z,90056.34
2023-12-27T17:08:01.137Z,90062.28
2023-12-27T17:10:27.444Z,90072.66
2023-12-27T17:12:53.820Z,90069.63
2023-12-27T17:15:20.117Z,90074.78
2023-12-27T17:17:46.456Z,90075.19
2023-12-27T17:20:12.790Z,90075.91
2023-12-27T17:22:39.084Z,90071.63
2023-12-27T17:25:05.391Z,90065.91
2023-12-27T17:27:31.791Z,90070.56
2023-12-27T17:29:58.142Z,90071.34
2023-12-27T17:32:24.551Z,90082.63
2023-12-27T17:34:50.992Z,90078.91
2023-12-27T17:37:17.369Z,90079.91
2023-12-27T17:39:43.704Z,90077.16
2023-12-27T17:42:10.060Z,90085.34
2023-12-27T17:44:36.422Z,90083.84
2023-12-27T17:47:02.710Z,90081.78
2023-12-27T17:49:29.121Z,90075.28
2023-12-27T17:51:55.463Z,90075.19
2023-12-27T17:54:21.773Z,90084.56
2023-12-27T17:56:48.076Z,90084.94
2023-12-27T17:59:14.380Z,90082.28
2023-12-27T18:01:40.676Z,90087.78
2023-12-27T18:04:07.039Z,90090.13
2023-12-27T18:06:33.409Z,90094.38
2023-12-27T18:08:59.720Z,90091.78
2023-12-27T18:11:25.995Z,90092.19
2023-12-27T18:13:52.314Z,90104.81
2023-12-27T18:16:18.645Z,90101.81
2023-12-27T18:18:45.089Z,90099.13
2023-12-27T18:21:11.476Z,90097.56
2023-12-27T18:23:37.781Z,90110.38
2023-12-27T18:26:04.058Z,90094.78
2023-12-27T18:28:30.338Z,90094.03
2023-12-27T18:30:56.681Z,90101.88
2023-12-27T18:33:23.112Z,90103.34
2023-12-27T18:35:49.670Z,90104.00
2023-12-27T18:38:15.946Z,90110.41
2023-12-27T18:40:42.224Z,90113.34
2023-12-27T18:43:08.612Z,90113.25
2023-12-27T18:45:35.079Z,90113.75
2023-12-27T18:48:01.543Z,90117.84
2023-12-27T18:50:28.108Z,90112.47
2023-12-27T18:52:54.585Z,90122.94
2023-12-27T18:55:21.019Z,90120.75
2023-12-27T18:57:47.384Z,90126.00
2023-12-27T19:00:13.710Z,90129.72
2023-12-27T19:02:40.050Z,90132.38
2023-12-27T19:05:06.411Z,90122.75
2023-12-27T19:07:32.707Z,90120.53
2023-12-27T19:09:58.979Z,90124.25
2023-12-27T19:12:25.450Z,90126.84
2023-12-27T19:14:51.762Z,90134.31
2023-12-27T19:17:18.039Z,90130.56
2023-12-27T19:19:44.480Z,90132.81
2023-12-27T19:22:10.804Z,90132.81
2023-12-27T19:24:37.105Z,90131.25
2023-12-27T19:27:03.410Z,90133.09
2023-12-27T19:29:29.696Z,90132.69
2023-12-27T19:31:55.981Z,90131.97
2023-12-27T19:34:22.356Z,90131.19
2023-12-27T19:36:48.831Z,90141.63
2023-12-27T19:39:15.226Z,90148.03
2023-12-27T19:41:41.529Z,90147.63
2023-12-27T19:44:07.872Z,90152.84
2023-12-27T19:46:34.154Z,90150.03
2023-12-27T19:49:00.569Z,90144.25
2023-12-27T19:51:26.957Z,90153.72
2023-12-27T19:53:53.274Z,90150.00
2023-12-27T19:56:19.553Z,90155.97
2023-12-27T19:58:45.846Z,90153.72
2023-12-27T20:01:12.197Z,90149.59
2023-12-27T20:03:38.571Z,90151.47
2023-12-27T20:06:04.940Z,90144.03
2023-12-27T20:08:31.315Z,90149.94
2023-12-27T20:10:57.595Z,90150.00
2023-12-27T20:13:23.884Z,90149.25
2023-12-27T20:15:50.209Z,90151.50
2023-12-27T20:18:16.686Z,90156.31
2023-12-27T20:20:43.225Z,90164.91
2023-12-27T20:23:09.515Z,90157.44
2023-12-27T20:25:35.790Z,90168.63
2023-12-27T20:28:02.461Z,90164.91
2023-12-27T20:30:29.253Z,90174.97
2023-12-27T20:32:55.820Z,90174.59
2023-12-27T20:35:22.199Z,90176.84
2023-12-27T20:37:48.473Z,90177.22
2023-12-27T20:40:14.756Z,90170.88
2023-12-27T20:42:41.158Z,90173.09
2023-12-27T20:45:07.512Z,90178.72
2023-12-27T20:47:33.996Z,90176.09
2023-12-27T20:50:00.459Z,90177.59
2023-12-27T20:52:26.814Z,90180.94
2023-12-27T20:54:53.148Z,90179.03
2023-12-27T20:57:19.535Z,90176.84
2023-12-27T20:59:45.844Z,90179.09
2023-12-27T21:02:12.213Z,90180.56
2023-12-27T21:04:38.656Z,90171.25
2023-12-27T21:07:05.048Z,90183.53
2023-12-27T21:09:31.406Z,90184.31
2023-12-27T21:11:57.709Z,90189.50
2023-12-27T21:14:23.997Z,90184.28
2023-12-27T21:16:50.290Z,90189.91
2023-12-27T21:19:16.677Z,90187.63
2023-12-27T21:21:43.050Z,90177.97
2023-12-27T21:24:09.436Z,90174.59
2023-12-27T21:26:35.828Z,90182.44
2023-12-27T21:29:02.116Z,90183.53
2023-12-27T21:31:28.520Z,90180.19
2023-12-27T21:33:55.146Z,90182.44
2023-12-27T21:36:21.766Z,90183.19
2023-12-27T21:38:48.064Z,90182.81
2023-12-27T21:41:14.349Z,90187.28
2023-12-27T21:43:40.645Z,90184.66
2023-12-27T21:46:06.935Z,90187.22
2023-12-27T21:48:33.328Z,90182.75
2023-12-27T21:50:59.680Z,90185.75
2023-12-27T21:53:26.029Z,90187.28
2023-12-27T21:55:52.341Z,90182.81
2023-12-27T21:58:18.630Z,90193.25
2023-12-27T22:00:44.925Z,90194.38
2023-12-27T22:03:11.272Z,90199.97
2023-12-27T22:05:37.698Z,90202.09
2023-12-27T22:08:07.861Z,90189.31
2023-12-27T22:10:37.015Z,90189.59
2023-12-27T22:13:03.304Z,90186.91
2023-12-27T22:15:29.644Z,90180.97
2023-12-27T22:17:56.092Z,90183.97
2023-12-27T22:20:22.515Z,90185.59
2023-12-27T22:22:48.788Z,90182.63
2023-12-27T22:25:15.081Z,90188.72
2023-12-27T22:27:41.390Z,90188.78
2023-12-27T22:30:07.740Z,90192.53
2023-12-27T22:32:34.127Z,90178.34
2023-12-27T22:35:00.429Z,90192.50
2023-12-27T22:37:26.697Z,90194.38
2023-12-27T22:39:52.996Z,90194.75
2023-12-27T22:42:19.385Z,90196.25
2023-12-27T22:44:45.670Z,90196.25
2023-12-27T22:47:11.958Z,90205.09
2023-12-27T22:49:38.419Z,90196.88
2023-12-27T22:52:04.746Z,90188.22
2023-12-27T22:54:31.068Z,90184.88
2023-12-27T22:56:57.386Z,90186.47
2023-12-27T22:59:23.677Z,90192.88
2023-12-27T23:01:49.954Z,90201.47
2023-12-27T23:04:16.351Z,90202.44
2023-12-27T23:06:42.711Z,90199.41
2023-12-27T23:09:09.082Z,90199.72
2023-12-27T23:11:35.415Z,90205.75
2023-12-27T23:14:01.729Z,90203.44
2023-12-27T23:16:28.014Z,90204.22
2023-12-27T23:18:54.407Z,90200.94
2023-12-27T23:21:20.792Z,90199.47
2023-12-27T23:23:47.097Z,90201.41
2023-12-27T23:26:13.387Z,90198.34
2023-12-27T23:28:39.688Z,90200.53
2023-12-27T23:31:06.074Z,90202.72
2023-12-27T23:33:32.497Z,90199.78
2023-12-27T23:35:58.898Z,90196.97
2023-12-27T23:38:25.240Z,90197.38
2023-12-27T23:40:51.594Z,90194.75
2023-12-27T23:43:17.883Z,90186.91
2023-12-27T23:45:44.274Z,90199.19
2023-12-27T23:48:10.901Z,90193.94
2023-12-27T23:50:37.285Z,90192.88
2023-12-27T23:53:03.561Z,90191.75
2023-12-27T23:55:29.933Z,90191.75
2023-12-27T23:57:56.412Z,90194.00
